Terminal Aerodrome Forecast
Issued by NWS

Home | Current Version | Previous Version | Text Only | Print | Product List | Glossary On
Versions: 1 2 3 4 5 6 7 8 9 10 11 12 13 14 15 16 17 18 19 20 21 22 23 24
000
FTUS43 KDLH 130500
TAFHYR
TAF
KHYR 130532Z 1306/1406 00000KT P6SM FEW070
      TEMPO 1307/1311 2SM BR
     FM131600 24007KT P6SM SKC
     FM132000 22010KT P6SM SCT060
     FM140000 20007KT P6SM SCT060=

USA.gov is the U.S. government's official web portal to all federal, state and local government web resources and services.